createdAt,value
2019-01-24T00:05:45.913Z,0.54
2019-01-24T00:11:40.884Z,0.49
2019-01-24T00:17:35.897Z,0.61
2019-01-24T00:23:30.879Z,1.75
2019-01-24T00:29:25.895Z,0.76
2019-01-24T00:35:20.889Z,0.58
2019-01-24T00:41:15.917Z,4.11
2019-01-24T00:47:10.958Z,0.65
2019-01-24T00:53:05.902Z,0.43
2019-01-24T00:59:00.927Z,1.02
2019-01-24T01:04:55.905Z,0.97
2019-01-24T01:10:50.967Z,1.15
2019-01-24T01:16:45.962Z,0.94
2019-01-24T01:22:40.988Z,0.69
2019-01-24T01:28:35.913Z,1.06
2019-01-24T01:34:36.066Z,0.77
2019-01-24T01:40:25.939Z,0.76
2019-01-24T01:46:20.963Z,0.87
2019-01-24T01:52:15.943Z,0.62
2019-01-24T01:58:10.945Z,0.81
2019-01-24T02:04:05.957Z,1.27
2019-01-24T02:10:00.956Z,0.76
2019-01-24T02:15:55.960Z,0.91
2019-01-24T02:21:50.995Z,0.7
2019-01-24T02:27:45.946Z,0.96
2019-01-24T02:33:40.940Z,0.96
2019-01-24T02:39:35.977Z,0.7
2019-01-24T02:45:30.996Z,1.37
2019-01-24T02:51:26.028Z,0.57
2019-01-24T02:57:20.993Z,0.63
2019-01-24T03:03:15.980Z,0.53
2019-01-24T03:09:10.980Z,0.46
2019-01-24T03:15:05.995Z,0.7
2019-01-24T03:21:00.994Z,0.57
2019-01-24T03:26:56.023Z,1.71
2019-01-24T03:32:51.013Z,1.55
2019-01-24T03:38:46.011Z,0.5
2019-01-24T03:44:40.995Z,0.51
2019-01-24T03:50:35.995Z,0.48
2019-01-24T03:56:31.002Z,0.67
2019-01-24T04:02:26.000Z,0.51
2019-01-24T04:08:21.065Z,0.55
2019-01-24T04:14:16.038Z,0.4
2019-01-24T04:20:11.074Z,0.44
2019-01-24T04:26:06.020Z,0.3
2019-01-24T04:32:01.027Z,0.38
2019-01-24T04:37:56.012Z,1.17
2019-01-24T04:43:51.020Z,0.45
2019-01-24T04:49:46.035Z,1.21
2019-01-24T04:55:41.032Z,0.9
2019-01-24T05:01:36.056Z,1.79
2019-01-24T05:07:31.064Z,1.03
2019-01-24T05:13:26.055Z,0.62
2019-01-24T05:19:21.062Z,1.16
2019-01-24T05:25:16.097Z,0.68
2019-01-24T05:31:11.046Z,1
2019-01-24T05:37:06.065Z,1.19
2019-01-24T05:43:01.068Z,0.77
2019-01-24T05:48:56.052Z,1.14
2019-01-24T05:54:51.080Z,0.87
2019-01-24T06:00:46.079Z,1.43
2019-01-24T06:06:41.085Z,0.88
2019-01-24T06:12:36.111Z,2.85
2019-01-24T06:18:31.094Z,1.32
2019-01-24T06:24:26.069Z,1.73
2019-01-24T06:30:21.079Z,1.46
2019-01-24T06:36:16.083Z,1.76
2019-01-24T06:42:11.125Z,2.09
2019-01-24T06:48:06.109Z,1.16
2019-01-24T06:54:01.114Z,2.3
2019-01-24T06:59:56.095Z,2.03
2019-01-24T07:05:55.306Z,4.2
2019-01-24T07:11:46.139Z,2.11
2019-01-24T07:17:41.104Z,2.83
2019-01-24T07:23:36.134Z,2.96
2019-01-24T07:29:31.110Z,3.53
2019-01-24T07:35:26.132Z,3.18
2019-01-24T07:41:21.127Z,4.13
2019-01-24T07:47:16.132Z,4.62
2019-01-24T07:53:11.132Z,4.09
2019-01-24T07:59:06.133Z,4.69
2019-01-24T08:05:01.154Z,4.32
2019-01-24T08:10:56.153Z,4.4
2019-01-24T08:16:51.187Z,3.26
2019-01-24T08:22:46.236Z,6.84
2019-01-24T08:28:41.179Z,4.62
2019-01-24T08:34:36.151Z,8.7
2019-01-24T08:40:31.178Z,5.26
2019-01-24T08:46:26.207Z,6.9
2019-01-24T08:52:21.166Z,7.19
2019-01-24T08:58:16.217Z,6.23
2019-01-24T09:04:11.193Z,6.4
2019-01-24T09:10:06.177Z,9.23
2019-01-24T09:16:01.185Z,6.99
2019-01-24T09:21:56.181Z,5.77
2019-01-24T09:27:51.172Z,5.83
2019-01-24T09:33:46.196Z,7.1
2019-01-24T09:39:41.197Z,5.67
2019-01-24T09:45:36.214Z,8.31
2019-01-24T09:51:31.206Z,5.48
2019-01-24T09:57:26.229Z,8.5
2019-01-24T10:03:21.189Z,8.37
2019-01-24T10:09:16.258Z,8.09
2019-01-24T10:15:11.261Z,6.92
2019-01-24T10:21:06.233Z,7.43
2019-01-24T10:27:01.260Z,9.15
2019-01-24T10:32:56.305Z,6.68
2019-01-24T10:38:51.231Z,6.62
2019-01-24T11:20:16.290Z,7.85
2019-01-24T11:20:16.325Z,10.5
2019-01-24T11:20:16.325Z,10.5
2019-01-24T11:20:16.361Z,10.5
2019-01-24T11:20:16.372Z,10.5
2019-01-24T11:20:16.396Z,10.5
2019-01-24T11:20:16.432Z,10.5
2019-01-24T11:26:11.251Z,10.3
2019-01-24T11:32:06.250Z,10
2019-01-24T11:38:01.293Z,10.11
2019-01-24T11:43:56.364Z,13
2019-01-24T11:49:51.265Z,8.71
2019-01-24T11:55:46.274Z,8.12
2019-01-24T12:01:41.321Z,11.94
2019-01-24T12:07:36.285Z,17.95
2019-01-24T12:13:31.275Z,9.44
2019-01-24T12:19:26.293Z,27.29
2019-01-24T12:25:21.347Z,11.79
2019-01-24T12:31:16.285Z,9.72
2019-01-24T12:37:11.562Z,10.43
2019-01-24T12:43:06.370Z,8.49
2019-01-24T12:49:01.290Z,11.69
2019-01-24T12:54:56.360Z,14.73
2019-01-24T13:00:51.332Z,10.73
2019-01-24T13:06:46.300Z,11
2019-01-24T13:12:41.318Z,11.65
2019-01-24T13:18:36.352Z,9.62
2019-01-24T13:24:31.371Z,9.3
2019-01-24T13:30:26.333Z,12.64
2019-01-24T13:36:21.336Z,13.32
2019-01-24T13:42:16.357Z,9.96
2019-01-24T13:48:11.432Z,11
2019-01-24T13:54:06.345Z,21.14
2019-01-24T14:00:01.363Z,11.76
2019-01-24T14:05:56.358Z,12.07
2019-01-24T14:11:51.348Z,12.08
2019-01-24T14:17:46.349Z,13.67
2019-01-24T14:23:41.347Z,12.85
2019-01-24T14:29:36.370Z,15.1
2019-01-24T14:35:31.378Z,10.52
2019-01-24T14:41:26.387Z,10.21
2019-01-24T14:47:21.353Z,26.56
2019-01-24T14:53:16.397Z,16.32
2019-01-24T14:59:11.382Z,13.99
2019-01-24T15:05:06.401Z,13.94
2019-01-24T15:11:01.401Z,12.55
2019-01-24T15:16:56.400Z,11.52
2019-01-24T15:22:51.405Z,13.21
2019-01-24T15:28:46.402Z,15.86
2019-01-24T15:34:41.420Z,12.42
2019-01-24T15:40:36.423Z,10.74
2019-01-24T15:46:31.409Z,13.26
2019-01-24T15:52:26.421Z,8.93
2019-01-24T15:58:21.434Z,12.37
2019-01-24T16:04:19.818Z,10.01
2019-01-24T16:10:11.442Z,9.68
2019-01-24T16:16:06.444Z,19.04
2019-01-24T16:22:01.441Z,6.67
2019-01-24T16:27:56.434Z,10.12
2019-01-24T16:33:51.410Z,9.64
2019-01-24T16:39:46.449Z,13.45
2019-01-24T16:45:41.437Z,10.43
2019-01-24T16:51:36.472Z,9
2019-01-24T16:57:31.463Z,55.85
2019-01-24T17:03:26.508Z,37.93
2019-01-24T17:09:21.489Z,15.87
2019-01-24T17:15:16.441Z,14.17
2019-01-24T17:21:11.461Z,19.79
2019-01-24T17:27:06.483Z,10.25
2019-01-24T17:33:01.478Z,10.67
2019-01-24T17:38:56.504Z,10.3
2019-01-24T17:44:51.511Z,9.57
2019-01-24T17:50:46.474Z,11.72
2019-01-24T17:56:41.481Z,10.91
2019-01-24T18:02:36.481Z,13.24
2019-01-24T18:08:31.607Z,13.54
2019-01-24T18:14:26.535Z,15.84
2019-01-24T18:20:21.482Z,12.31
2019-01-24T18:26:16.513Z,18.51
2019-01-24T18:32:11.482Z,14.28
2019-01-24T18:38:06.589Z,14.14
2019-01-24T18:44:01.570Z,12.73
2019-01-24T18:49:56.512Z,18.31
2019-01-24T18:55:51.534Z,17.56
2019-01-24T19:01:46.530Z,23.05
2019-01-24T19:07:41.546Z,22.1
2019-01-24T19:13:36.545Z,32.12
2019-01-24T19:19:31.507Z,28.87
2019-01-24T19:25:26.535Z,35.06
2019-01-24T19:31:21.521Z,31.11
2019-01-24T19:37:16.530Z,31.17
2019-01-24T19:43:11.535Z,30.08
2019-01-24T19:49:06.526Z,23.55
2019-01-24T19:55:01.575Z,22.68
2019-01-24T20:00:56.586Z,20.28
2019-01-24T20:06:51.542Z,23.88
2019-01-24T20:12:46.551Z,27.11
2019-01-24T20:18:41.562Z,29.83
2019-01-24T20:24:36.665Z,29.21
2019-01-24T20:30:31.579Z,27.73
2019-01-24T20:36:26.596Z,25.39
2019-01-24T20:42:21.595Z,25.77
2019-01-24T20:48:16.591Z,24.33
2019-01-24T20:54:11.565Z,28.27
2019-01-24T21:00:06.583Z,29.26
2019-01-24T21:06:01.581Z,30.91
2019-01-24T21:11:56.614Z,24.26
2019-01-24T21:17:51.612Z,26.96
2019-01-24T21:23:46.606Z,27.26
2019-01-24T21:29:41.607Z,23.74
2019-01-24T21:35:36.619Z,22.16
2019-01-24T21:41:31.662Z,27.02
2019-01-24T21:47:26.588Z,25.62
2019-01-24T21:53:21.602Z,31.71
2019-01-24T21:59:16.623Z,28.21
2019-01-24T22:05:11.613Z,28.31
2019-01-24T22:11:06.628Z,21.67
2019-01-24T22:17:01.607Z,25.51
2019-01-24T22:22:56.643Z,21.13
2019-01-24T22:28:51.613Z,23.26
2019-01-24T22:34:46.640Z,29.69
2019-01-24T22:40:41.634Z,21.77
2019-01-24T22:46:36.653Z,23.45
2019-01-24T22:52:31.626Z,18.8
2019-01-24T22:58:26.645Z,14.2
2019-01-24T23:04:21.662Z,17.63
2019-01-24T23:10:16.659Z,13.87
2019-01-24T23:16:11.674Z,17.91
2019-01-24T23:22:06.660Z,13.95
2019-01-24T23:28:01.696Z,11.72
2019-01-24T23:33:56.681Z,16.6
2019-01-24T23:39:53.436Z,15.32
2019-01-24T23:45:46.686Z,13.35
2019-01-24T23:51:41.717Z,13.77
2019-01-24T23:57:36.705Z,14.32
